Terminal Aerodrome Forecast
Issued by NWS Newport/Morehead City, NC

Home | Current Version | Previous Version | Text Only | Print | Product List | Glossary On
Versions: 1 2 3 4 5 6 7 8 9 10 11 12 13 14 15 16 17
000
FTUS42 KMHX 170532
TAFEWN
TAF
KEWN 170532Z 1706/1806 00000KT P6SM SCT015 BKN100
     FM171000 VRB02KT 5SM BR BKN007
     FM171400 24006KT P6SM SCT007 BKN015
     FM171900 23007KT P6SM SCT015 BKN100=

USA.gov is the U.S. government's official web portal to all federal, state and local government web resources and services.